Time;durP1;ratioP1;P1;durP2;ratioP2;P2;SDS_P1;SDS_P2;PMS_P1;PMS_P2;Temp;Humidity;BMP_temperature;BMP_pressure;BME280_temperature;BME280_humidity;BME280_pressure;Samples;Min_cycle;Max_cycle;Signal;HPM_P1;HPM_P2
2023/12/05 00:01:34;;;;;;;58.60;29.50;;;;;;;-5.42;100.00;101896.23;107788;1241;70002;-73
2023/12/05 00:04:04;;;;;;;57.80;27.80;;;;;;;-5.39;100.00;101892.20;107987;1239;73306;-80
2023/12/05 00:06:33;;;;;;;51.00;26.60;;;;;;;-5.36;100.00;101894.62;107935;1239;62025;-75
2023/12/05 00:09:03;;;;;;;50.60;25.40;;;;;;;-5.32;100.00;101898.91;107974;1249;60648;-75
2023/12/05 00:11:32;;;;;;;49.60;27.10;;;;;;;-5.26;100.00;101899.32;107972;1240;71954;-76
2023/12/05 00:14:01;;;;;;;47.70;25.80;;;;;;;-5.22;100.00;101905.48;107995;1239;70539;-75
2023/12/05 00:16:30;;;;;;;53.70;26.00;;;;;;;-5.18;100.00;101906.37;107928;1238;69648;-76
2023/12/05 00:18:59;;;;;;;53.00;26.90;;;;;;;-5.14;100.00;101904.55;107810;1249;73902;-74
2023/12/05 00:21:28;;;;;;;51.80;26.00;;;;;;;-5.12;100.00;101902.70;107800;1239;62716;-75
2023/12/05 00:23:58;;;;;;;53.90;28.30;;;;;;;-5.11;100.00;101901.85;107781;1242;60870;-76
2023/12/05 00:26:28;;;;;;;55.90;28.50;;;;;;;-5.08;100.00;101895.45;107979;1241;73079;-75
2023/12/05 00:28:56;;;;;;;51.90;26.70;;;;;;;-5.02;100.00;101896.35;108038;1238;72387;-79
2023/12/05 00:31:25;;;;;;;51.90;26.40;;;;;;;-4.99;100.00;101895.54;107953;1239;70341;-78
2023/12/05 00:33:54;;;;;;;52.00;25.90;;;;;;;-4.97;100.00;101889.61;107944;1238;73400;-79
2023/12/05 00:36:24;;;;;;;56.30;28.40;;;;;;;-4.94;100.00;101887.44;107926;1245;63458;-77
2023/12/05 00:38:54;;;;;;;54.10;28.00;;;;;;;-4.90;100.00;101889.00;107741;1237;59740;-76
2023/12/05 00:41:25;;;;;;;50.90;25.90;;;;;;;-4.88;100.00;101889.36;107940;1249;73345;-77
2023/12/05 00:43:53;;;;;;;51.60;26.40;;;;;;;-4.84;100.00;101883.12;107930;1241;72361;-80
2023/12/05 00:46:22;;;;;;;53.40;27.30;;;;;;;-4.79;100.00;101878.06;107743;1239;70761;-78
2023/12/05 00:48:52;;;;;;;53.80;28.10;;;;;;;-4.77;100.00;101877.90;107969;1249;73482;-76
2023/12/05 00:51:21;;;;;;;52.80;27.90;;;;;;;-4.75;100.00;101875.55;107981;1239;61609;-76
2023/12/05 00:53:50;;;;;;;50.50;25.70;;;;;;;-4.73;100.00;101874.38;108084;1240;61067;-76
2023/12/05 00:56:20;;;;;;;51.10;26.10;;;;;;;-4.72;100.00;101876.25;108000;1244;72475;-76
2023/12/05 00:58:49;;;;;;;49.30;26.20;;;;;;;-4.69;100.00;101871.02;107962;1246;71256;-75
2023/12/05 01:01:19;;;;;;;48.20;26.30;;;;;;;-4.68;100.00;101874.09;107965;1248;68408;-75
2023/12/05 01:03:51;;;;;;;52.80;26.40;;;;;;;-4.64;100.00;101874.63;107917;1239;72867;-75
2023/12/05 01:06:20;;;;;;;50.50;25.90;;;;;;;-4.60;100.00;101877.05;107985;1239;61830;-75
2023/12/05 01:08:49;;;;;;;50.90;27.70;;;;;;;-4.51;100.00;101865.38;107968;1239;59931;-76
2023/12/05 01:11:18;;;;;;;52.40;26.10;;;;;;;-4.30;100.00;101860.27;107892;1249;70035;-74
2023/12/05 01:13:47;;;;;;;48.50;25.70;;;;;;;-4.14;100.00;101852.90;107921;1239;71488;-75
2023/12/05 01:16:16;;;;;;;48.80;25.00;;;;;;;-4.03;100.00;101854.84;107909;1241;69656;-75
2023/12/05 01:18:45;;;;;;;47.20;26.20;;;;;;;-4.00;100.00;101853.15;107954;1239;73470;-74
2023/12/05 01:21:15;;;;;;;47.80;25.90;;;;;;;-3.95;100.00;101846.89;107968;1239;61528;-75
2023/12/05 01:23:45;;;;;;;48.60;25.50;;;;;;;-3.94;100.00;101841.95;108008;1239;60787;-76
2023/12/05 01:26:14;;;;;;;48.30;24.10;;;;;;;-3.95;100.00;101848.42;108053;1246;71901;-77
2023/12/05 01:28:43;;;;;;;48.10;25.60;;;;;;;-3.96;100.00;101848.93;107939;1239;69771;-78
2023/12/05 01:31:13;;;;;;;48.70;24.70;;;;;;;-3.96;100.00;101853.52;107755;1249;69141;-76
2023/12/05 01:33:42;;;;;;;52.40;25.30;;;;;;;-3.95;100.00;101849.79;108022;1242;73723;-78
2023/12/05 01:36:11;;;;;;;45.50;22.40;;;;;;;-3.94;100.00;101841.11;107949;1239;60347;-74
2023/12/05 01:38:40;;;;;;;46.70;22.90;;;;;;;-3.93;100.00;101836.51;107935;1246;58760;-76
2023/12/05 01:41:09;;;;;;;47.70;23.70;;;;;;;-3.91;100.00;101833.30;107820;1246;70901;-75
2023/12/05 01:43:38;;;;;;;46.40;24.50;;;;;;;-3.86;100.00;101832.63;107843;1239;69629;-75
2023/12/05 01:46:07;;;;;;;44.50;23.20;;;;;;;-3.82;100.00;101828.73;107793;1245;67938;-75
2023/12/05 01:48:37;;;;;;;43.60;23.50;;;;;;;-3.76;100.00;101817.19;107727;1248;71208;-77
2023/12/05 01:51:09;;;;;;;46.90;25.50;;;;;;;-3.70;100.00;101809.73;107555;1242;60211;-75
2023/12/05 01:53:40;;;;;;;48.20;24.20;;;;;;;-3.56;100.00;101793.60;107874;1239;60199;-77
2023/12/05 01:56:12;;;;;;;46.20;24.80;;;;;;;-3.48;100.00;101781.70;107755;1246;71919;-76
2023/12/05 01:58:42;;;;;;;44.10;22.90;;;;;;;-3.42;100.00;101772.34;107800;1248;69183;-74
2023/12/05 02:01:15;;;;;;;40.80;23.80;;;;;;;-3.41;100.00;101767.41;108014;1239;67874;-74
2023/12/05 02:03:46;;;;;;;47.00;24.50;;;;;;;-3.34;100.00;101761.13;108016;1239;71003;-74
2023/12/05 02:06:21;;;;;;;38.20;22.00;;;;;;;-3.32;100.00;101760.95;107960;1239;61235;-74
2023/12/05 02:08:52;;;;;;;45.00;24.30;;;;;;;-3.32;100.00;101754.98;107947;1235;59219;-74
2023/12/05 02:11:21;;;;;;;45.40;24.60;;;;;;;-3.31;100.00;101755.49;108035;1240;72607;-75
2023/12/05 02:13:51;;;;;;;44.90;25.20;;;;;;;-3.28;100.00;101756.87;107811;1248;71389;-75
2023/12/05 02:17:27;;;;;;;38.90;23.30;;;;;;;-3.25;100.00;101749.73;107814;1247;70832;-75
2023/12/05 02:20:53;;;;;;;43.60;23.00;;;;;;;-3.26;100.00;101741.88;107926;1247;74277;-77
2023/12/05 02:24:00;;;;;;;45.40;24.20;;;;;;;-3.28;100.00;101731.66;107830;1247;60683;-77
2023/12/05 02:26:58;;;;;;;43.90;22.90;;;;;;;-3.30;100.00;101728.75;107852;1246;60666;-77
2023/12/05 02:29:27;;;;;;;39.60;22.80;;;;;;;-3.31;100.00;101722.45;107806;1235;73104;-77
2023/12/05 02:31:57;;;;;;;40.60;22.30;;;;;;;-3.34;100.00;101722.79;107808;1235;71604;-76
2023/12/05 02:34:26;;;;;;;45.10;24.80;;;;;;;-3.35;100.00;101727.55;107693;1239;70765;-78
2023/12/05 02:37:12;;;;;;;44.10;23.40;;;;;;;-3.33;100.00;101733.02;107711;1249;72155;-76
2023/12/05 02:39:47;;;;;;;44.20;24.20;;;;;;;-3.36;100.00;101743.73;107787;1238;59474;-74
2023/12/05 02:42:22;;;;;;;42.10;21.40;;;;;;;-3.37;100.00;101736.75;107751;1238;58565;-74
2023/12/05 02:44:53;;;;;;;42.30;21.40;;;;;;;-3.40;100.00;101732.33;107804;1235;70205;-73
2023/12/05 02:47:24;;;;;;;37.10;21.20;;;;;;;-3.41;100.00;101728.23;107858;1235;72092;-73
2023/12/05 02:49:53;;;;;;;43.00;23.80;;;;;;;-3.42;100.00;101720.55;107823;1244;70540;-74
2023/12/05 02:52:23;;;;;;;41.20;22.80;;;;;;;-3.40;100.00;101706.94;107701;1249;71751;-75
2023/12/05 02:54:52;;;;;;;42.60;23.10;;;;;;;-3.38;100.00;101705.23;107698;1246;59943;-75
2023/12/05 02:57:21;;;;;;;43.80;22.30;;;;;;;-3.36;100.00;101711.88;107873;1238;59050;-76
2023/12/05 02:59:50;;;;;;;41.00;21.20;;;;;;;-3.35;100.00;101716.81;107914;1248;70851;-74
2023/12/05 03:02:19;;;;;;;40.70;20.90;;;;;;;-3.34;100.00;101721.42;107827;1239;73057;-74
2023/12/05 03:04:48;;;;;;;41.80;21.60;;;;;;;-3.33;100.00;101721.27;107885;1249;70509;-74
2023/12/05 03:07:18;;;;;;;41.10;21.70;;;;;;;-3.31;100.00;101720.05;107836;1239;73700;-75
2023/12/05 03:09:46;;;;;;;42.90;22.30;;;;;;;-3.30;100.00;101716.32;107871;1245;62430;-74
2023/12/05 03:12:16;;;;;;;43.30;22.80;;;;;;;-3.29;100.00;101707.64;107886;1247;61574;-76
2023/12/05 03:14:45;;;;;;;50.20;23.30;;;;;;;-3.25;100.00;101705.59;107667;1249;73214;-78
2023/12/05 03:17:14;;;;;;;44.20;21.70;;;;;;;-3.23;100.00;101712.91;107879;1235;72249;-75
2023/12/05 03:19:43;;;;;;;44.00;22.20;;;;;;;-3.20;100.00;101705.41;107919;1239;68058;-76
2023/12/05 03:22:12;;;;;;;44.90;22.40;;;;;;;-3.21;100.00;101693.50;107909;1239;72099;-76
2023/12/05 03:24:41;;;;;;;44.20;21.80;;;;;;;-3.22;100.00;101691.80;107907;1239;59672;-74
2023/12/05 03:27:10;;;;;;;48.00;23.50;;;;;;;-3.22;100.00;101695.02;107995;1239;59058;-76
2023/12/05 03:29:39;;;;;;;46.20;25.20;;;;;;;-3.25;100.00;101703.54;107874;1244;73373;-75
2023/12/05 03:32:08;;;;;;;48.20;23.60;;;;;;;-3.26;100.00;101699.79;107738;1245;72503;-76
2023/12/05 03:34:37;;;;;;;45.10;23.90;;;;;;;-3.24;100.00;101692.30;107726;1239;70215;-75
2023/12/05 03:37:07;;;;;;;41.80;22.20;;;;;;;-3.31;100.00;101685.81;107818;1239;74521;-75
2023/12/05 03:39:36;;;;;;;42.30;23.60;;;;;;;-3.28;100.00;101681.73;107723;1249;60565;-77
2023/12/05 03:42:05;;;;;;;46.20;22.90;;;;;;;-3.31;100.00;101677.98;107753;1239;58985;-75
2023/12/05 03:44:34;;;;;;;46.60;23.00;;;;;;;-3.31;100.00;101676.63;107772;1250;70794;-74
2023/12/05 03:47:03;;;;;;;43.00;22.60;;;;;;;-3.31;100.00;101676.79;107735;1244;71669;-75
2023/12/05 03:49:33;;;;;;;47.30;23.40;;;;;;;-3.34;100.00;101664.70;107691;1239;70876;-74
2023/12/05 03:52:03;;;;;;;48.80;22.80;;;;;;;-3.35;100.00;101663.67;107749;1242;74541;-76
2023/12/05 03:54:32;;;;;;;46.50;23.50;;;;;;;-3.37;100.00;101653.96;107723;1239;60647;-75
2023/12/05 03:57:01;;;;;;;45.60;22.60;;;;;;;-3.39;100.00;101649.88;107707;1250;59623;-74
2023/12/05 03:59:30;;;;;;;43.40;23.80;;;;;;;-3.40;100.00;101647.31;107829;1250;71161;-76
2023/12/05 04:01:59;;;;;;;41.90;21.20;;;;;;;-3.39;100.00;101644.42;107703;1243;70399;-75
2023/12/05 04:04:29;;;;;;;45.00;22.50;;;;;;;-3.37;100.00;101643.23;107751;1250;67836;-73
2023/12/05 04:06:59;;;;;;;41.70;23.00;;;;;;;-3.35;100.00;101646.64;107641;1239;73643;-75
2023/12/05 04:09:28;;;;;;;48.30;24.80;;;;;;;-3.30;100.00;101648.35;107832;1246;61790;-74
2023/12/05 04:11:58;;;;;;;39.10;20.60;;;;;;;-3.27;100.00;101653.96;108022;1238;60665;-73
2023/12/05 04:14:26;;;;;;;46.10;22.30;;;;;;;-3.24;100.00;101653.96;107772;1246;73683;-75
2023/12/05 04:16:55;;;;;;;37.50;18.80;;;;;;;-3.20;100.00;101650.38;107832;1239;72325;-73
2023/12/05 04:19:25;;;;;;;42.40;21.60;;;;;;;-3.16;100.00;101650.05;107738;1238;70223;-74
2023/12/05 04:21:54;;;;;;;39.30;20.10;;;;;;;-3.12;100.00;101653.10;107807;1249;75219;-75
2023/12/05 04:24:23;;;;;;;46.80;21.40;;;;;;;-3.02;100.00;101649.67;107796;1239;61929;-74
2023/12/05 04:26:53;;;;;;;44.70;21.70;;;;;;;-2.96;100.00;101652.05;107744;1238;60313;-75
2023/12/05 04:29:22;;;;;;;38.50;20.20;;;;;;;-2.92;100.00;101646.09;107552;1240;70986;-71
2023/12/05 04:32:01;;;;;;;40.90;21.50;;;;;;;-2.86;100.00;101638.58;107634;1239;70111;-74
2023/12/05 04:35:16;;;;;;;40.30;20.60;;;;;;;-2.91;100.00;101617.10;107537;1248;70939;-76
2023/12/05 04:37:46;;;;;;;41.20;22.50;;;;;;;-2.77;100.00;101627.29;107599;1239;71567;-75
2023/12/05 04:40:15;;;;;;;40.80;21.10;;;;;;;-2.72;100.00;101621.32;107676;1239;60918;-74
2023/12/05 04:42:44;;;;;;;41.00;21.50;;;;;;;-2.68;100.00;101610.90;107699;1239;59350;-75
2023/12/05 04:45:13;;;;;;;46.60;22.00;;;;;;;-2.62;100.00;101617.86;107720;1239;72094;-74
2023/12/05 04:47:43;;;;;;;39.80;20.70;;;;;;;-2.58;100.00;101621.10;107693;1242;71750;-74
2023/12/05 04:50:12;;;;;;;42.40;21.40;;;;;;;-2.52;100.00;101619.36;107812;1238;71687;-76
2023/12/05 04:52:41;;;;;;;41.90;21.70;;;;;;;-2.42;100.00;101618.48;107594;1239;73413;-74
2023/12/05 04:55:11;;;;;;;39.50;21.20;;;;;;;-2.41;100.00;101605.34;107801;1246;61463;-73
2023/12/05 04:57:39;;;;;;;40.80;20.10;;;;;;;-2.37;100.00;101600.38;107525;1242;60962;-75
2023/12/05 05:00:12;;;;;;;40.00;20.70;;;;;;;-2.29;100.00;101592.64;107790;1241;74101;-71
2023/12/05 05:02:41;;;;;;;41.20;21.00;;;;;;;-2.24;100.00;101587.33;107516;1249;71642;-70
2023/12/05 05:05:13;;;;;;;42.10;22.20;;;;;;;-2.20;100.00;101585.42;107793;1243;71067;-71
2023/12/05 05:07:42;;;;;;;40.00;20.80;;;;;;;-2.21;100.00;101577.08;107710;1235;73407;-71
2023/12/05 05:10:11;;;;;;;40.50;21.70;;;;;;;-2.23;100.00;101575.05;107771;1247;61423;-71
2023/12/05 05:12:40;;;;;;;36.50;20.10;;;;;;;-2.28;100.00;101574.73;107947;1249;60872;-71
2023/12/05 05:15:10;;;;;;;41.40;21.70;;;;;;;-2.30;100.00;101573.20;107899;1249;72667;-74
2023/12/05 05:17:39;;;;;;;38.40;20.20;;;;;;;-2.31;100.00;101576.13;107809;1246;69963;-74
2023/12/05 05:21:33;;;;;;;38.10;21.70;;;;;;;-2.33;100.00;101579.19;104081;1283;602548;-72
2023/12/05 05:24:02;;;;;;;39.50;20.10;;;;;;;-2.33;100.00;101595.75;106006;1266;61096;-73
2023/12/05 05:26:31;;;;;;;42.80;20.80;;;;;;;-2.37;100.00;101596.44;106741;1248;60697;-72
2023/12/05 05:29:00;;;;;;;39.90;20.80;;;;;;;-2.47;100.00;101588.63;106722;1260;71883;-72
2023/12/05 05:31:29;;;;;;;43.80;21.80;;;;;;;-2.57;100.00;101580.84;106748;1248;72325;-71
2023/12/05 05:33:58;;;;;;;43.30;22.00;;;;;;;-2.59;100.00;101566.52;106331;1248;421852;-70
2023/12/05 05:36:28;;;;;;;40.50;22.00;;;;;;;-2.62;100.00;101555.98;106729;1248;73514;-72
2023/12/05 05:38:57;;;;;;;40.60;21.20;;;;;;;-2.60;100.00;101552.05;106674;1251;60583;-72
2023/12/05 05:41:27;;;;;;;43.80;21.90;;;;;;;-2.62;100.00;101546.76;106672;1247;60919;-72
2023/12/05 05:43:55;;;;;;;45.20;23.50;;;;;;;-2.65;100.00;101547.98;106693;1248;71004;-73
2023/12/05 05:46:25;;;;;;;43.90;22.20;;;;;;;-2.67;100.00;101550.34;106695;1255;71065;-72
2023/12/05 05:48:54;;;;;;;43.70;22.40;;;;;;;-2.64;100.00;101545.22;106633;1248;70109;-72
2023/12/05 05:51:25;;;;;;;41.50;21.00;;;;;;;-2.66;100.00;101532.96;106767;1259;74076;-72
2023/12/05 05:53:55;;;;;;;41.10;22.50;;;;;;;-2.65;100.00;101537.73;106755;1247;61741;-72
2023/12/05 05:56:25;;;;;;;37.60;21.50;;;;;;;-2.60;100.00;101540.27;106818;1247;61535;-72
2023/12/05 05:58:53;;;;;;;39.70;21.20;;;;;;;-2.55;100.00;101539.22;106780;1248;73347;-72
2023/12/05 06:01:23;;;;;;;41.70;19.60;;;;;;;-2.55;100.00;101542.96;106778;1247;72184;-72
2023/12/05 06:03:52;;;;;;;42.00;20.90;;;;;;;-2.49;100.00;101542.08;106755;1251;68393;-72
2023/12/05 06:06:21;;;;;;;43.40;23.60;;;;;;;-2.49;100.00;101545.31;106765;1253;73983;-71
2023/12/05 06:08:50;;;;;;;38.80;20.80;;;;;;;-2.47;100.00;101541.39;106726;1249;60803;-72
2023/12/05 06:11:19;;;;;;;39.80;20.50;;;;;;;-2.47;100.00;101544.80;106732;1248;59591;-72
2023/12/05 06:13:48;;;;;;;40.80;18.10;;;;;;;-2.43;100.00;101545.47;106726;1257;70187;-71
2023/12/05 06:16:17;;;;;;;44.20;20.70;;;;;;;-2.42;100.00;101546.83;106844;1248;69835;-71
2023/12/05 06:18:46;;;;;;;45.50;21.60;;;;;;;-2.40;100.00;101542.88;106953;1251;67681;-72
2023/12/05 06:21:16;;;;;;;38.20;21.30;;;;;;;-2.39;100.00;101538.61;106957;1254;73821;-72
2023/12/05 06:23:45;;;;;;;40.60;21.50;;;;;;;-2.36;100.00;101531.27;106838;1249;61417;-70
2023/12/05 06:26:15;;;;;;;37.90;21.40;;;;;;;-2.37;100.00;101534.34;106990;1250;59844;-71
2023/12/05 06:28:44;;;;;;;40.00;19.70;;;;;;;-2.32;100.00;101540.63;106956;1248;71715;-71
2023/12/05 06:31:13;;;;;;;38.50;19.90;;;;;;;-2.23;100.00;101537.15;107036;1248;70610;-71
2023/12/05 06:33:44;;;;;;;40.10;20.90;;;;;;;-2.11;100.00;101530.94;106981;1248;69847;-72
2023/12/05 06:36:16;;;;;;;41.80;20.00;;;;;;;-2.01;100.00;101524.88;106967;1256;74415;-72
2023/12/05 06:38:45;;;;;;;39.70;20.20;;;;;;;-1.86;100.00;101522.89;106885;1257;62532;-74
2023/12/05 06:41:15;;;;;;;32.80;17.80;;;;;;;-1.68;100.00;101521.03;107148;1257;60991;-72
2023/12/05 06:43:43;;;;;;;36.30;17.70;;;;;;;-1.57;100.00;101517.67;106970;1247;72541;-71
2023/12/05 06:46:12;;;;;;;35.40;17.20;;;;;;;-1.53;100.00;101516.46;107595;1246;72329;-71
2023/12/05 06:48:42;;;;;;;32.90;18.90;;;;;;;-1.42;100.00;101513.96;107014;1248;70072;-71
2023/12/05 06:51:21;;;;;;;32.60;17.40;;;;;;;-1.32;100.00;101508.73;107074;1246;72923;-72
2023/12/05 06:53:50;;;;;;;34.80;17.80;;;;;;;-1.21;100.00;101508.60;106944;1249;60328;-72
2023/12/05 06:56:22;;;;;;;38.90;18.40;;;;;;;-1.09;100.00;101510.68;107201;1245;61293;-72
2023/12/05 06:58:51;;;;;;;31.50;17.70;;;;;;;-1.02;100.00;101501.37;107123;1248;72701;-75
2023/12/05 07:01:20;;;;;;;32.10;17.30;;;;;;;-0.97;100.00;101491.56;107109;1245;72606;-73
2023/12/05 07:03:49;;;;;;;36.60;17.40;;;;;;;-0.96;100.00;101480.77;107130;1252;68935;-73
2023/12/05 07:06:24;;;;;;;36.90;18.30;;;;;;;-0.86;100.00;101471.42;107147;1243;74700;-72
2023/12/05 07:08:54;;;;;;;31.80;16.20;;;;;;;-0.79;100.00;101460.38;107136;1243;62419;-73
2023/12/05 07:11:26;;;;;;;35.50;18.40;;;;;;;-0.76;100.00;101450.42;107160;1245;61546;-73
2023/12/05 07:13:56;;;;;;;34.80;16.20;;;;;;;-0.72;100.00;101450.02;107192;1244;72332;-72
2023/12/05 07:16:25;;;;;;;39.90;17.20;;;;;;;-0.66;100.00;101447.21;107110;1257;72901;-73
2023/12/05 07:18:55;;;;;;;30.70;16.50;;;;;;;-0.60;100.00;101441.46;107290;1245;71413;-73
2023/12/05 07:21:24;;;;;;;29.50;16.10;;;;;;;-0.53;100.00;101425.62;107097;1257;73710;-72
2023/12/05 07:23:53;;;;;;;38.30;17.50;;;;;;;-0.56;100.00;101425.33;107177;1244;60502;-72
2023/12/05 07:26:29;;;;;;;33.50;19.40;;;;;;;-0.49;100.00;101422.83;107185;1248;60519;-71
2023/12/05 07:28:58;;;;;;;30.80;16.80;;;;;;;-0.48;100.00;101434.10;107207;1251;72948;-73
2023/12/05 07:31:27;;;;;;;30.70;16.10;;;;;;;-0.40;100.00;101437.91;107172;1257;71032;-73
2023/12/05 07:33:57;;;;;;;38.60;19.50;;;;;;;-0.27;100.00;101449.17;107252;1244;69812;-72
2023/12/05 07:36:27;;;;;;;32.70;18.90;;;;;;;-0.25;100.00;101452.92;107074;1247;73481;-71
2023/12/05 07:38:56;;;;;;;33.90;17.90;;;;;;;-0.20;100.00;101470.81;107159;1245;61020;-71
2023/12/05 07:41:25;;;;;;;34.90;17.10;;;;;;;-0.09;100.00;101477.83;107257;1246;59950;-73
2023/12/05 07:43:54;;;;;;;31.00;17.10;;;;;;;0.04;100.00;101471.48;107226;1244;72999;-72
2023/12/05 07:46:23;;;;;;;36.00;17.50;;;;;;;0.11;100.00;101480.41;107221;1249;72205;-73
2023/12/05 07:48:53;;;;;;;34.10;18.30;;;;;;;0.18;100.00;101473.61;106975;1256;69596;-72
2023/12/05 07:51:22;;;;;;;30.70;17.80;;;;;;;0.27;100.00;101476.20;107222;1245;73025;-73
2023/12/05 07:53:53;;;;;;;28.10;17.10;;;;;;;0.38;100.00;101479.44;107224;1248;60384;-75
2023/12/05 07:56:23;;;;;;;35.50;18.30;;;;;;;0.46;100.00;101487.33;107231;1244;58922;-72
2023/12/05 07:58:52;;;;;;;33.60;16.80;;;;;;;0.54;100.00;101494.91;107067;1245;72152;-71
2023/12/05 08:01:21;;;;;;;29.40;16.10;;;;;;;0.64;100.00;101490.77;107211;1245;71805;-72
2023/12/05 08:03:50;;;;;;;32.90;15.90;;;;;;;0.74;100.00;101489.56;107215;1243;69833;-72
2023/12/05 08:06:20;;;;;;;43.10;19.60;;;;;;;0.72;100.00;101499.18;107134;1248;74436;-71
2023/12/05 08:08:49;;;;;;;29.10;14.40;;;;;;;0.87;100.00;101500.45;107128;1248;62117;-72
2023/12/05 08:11:21;;;;;;;33.20;15.60;;;;;;;0.89;100.00;101492.71;107198;1243;59413;-73
2023/12/05 08:13:50;;;;;;;23.90;14.70;;;;;;;0.94;100.00;101484.54;107251;1245;72575;-72
2023/12/05 08:16:20;;;;;;;32.30;17.00;;;;;;;1.06;100.00;101483.60;107190;1256;72498;-73
2023/12/05 08:18:48;;;;;;;34.40;15.70;;;;;;;1.12;100.00;101484.17;107169;1244;70579;-71
2023/12/05 08:21:18;;;;;;;31.10;16.10;;;;;;;1.15;100.00;101475.88;107258;1248;72827;-71
2023/12/05 08:23:47;;;;;;;34.30;18.70;;;;;;;1.23;100.00;101467.81;107184;1245;60030;-71
2023/12/05 08:26:16;;;;;;;34.50;15.20;;;;;;;1.33;100.00;101464.86;107127;1248;59990;-71
2023/12/05 08:28:45;;;;;;;27.60;14.90;;;;;;;1.35;100.00;101463.77;107206;1244;72800;-71
2023/12/05 08:31:14;;;;;;;34.90;17.90;;;;;;;1.37;100.00;101468.52;107185;1243;72198;-69
2023/12/05 08:33:43;;;;;;;33.30;19.00;;;;;;;1.38;100.00;101470.58;107087;1243;70751;-71
2023/12/05 08:36:13;;;;;;;30.40;17.50;;;;;;;1.19;100.00;101464.30;107153;1243;75338;-71
2023/12/05 08:38:42;;;;;;;30.40;16.40;;;;;;;1.30;100.00;101451.86;107169;1243;60407;-72
2023/12/05 08:41:21;;;;;;;26.80;14.80;;;;;;;1.28;100.00;101437.49;107202;1248;59487;-72
2023/12/05 08:43:50;;;;;;;34.10;18.00;;;;;;;1.39;100.00;101429.69;107180;1254;69995;-72
2023/12/05 08:46:19;;;;;;;24.70;14.60;;;;;;;1.32;100.00;101429.33;107170;1253;70301;-72
2023/12/05 08:48:48;;;;;;;28.30;14.60;;;;;;;1.34;100.00;101430.30;107203;1246;67948;-72
2023/12/05 08:51:18;;;;;;;27.70;14.00;;;;;;;1.30;100.00;101426.98;107079;1246;73103;-72
2023/12/05 08:53:47;;;;;;;26.80;14.50;;;;;;;1.42;100.00;101417.77;106909;1247;60320;-72
2023/12/05 08:56:16;;;;;;;26.00;14.10;;;;;;;1.48;100.00;101407.50;106982;1252;59723;-72
2023/12/05 08:58:45;;;;;;;30.10;14.20;;;;;;;1.67;100.00;101407.06;106896;1247;71020;-72
2023/12/05 09:01:14;;;;;;;25.70;14.40;;;;;;;1.74;100.00;101409.79;107079;1256;70685;-71
2023/12/05 09:03:44;;;;;;;25.50;12.80;;;;;;;1.79;100.00;101403.48;106934;1247;67868;-71
2023/12/05 09:06:13;;;;;;;22.10;12.20;;;;;;;1.73;100.00;101398.14;106986;1246;73033;-71
2023/12/05 09:08:43;;;;;;;23.50;13.90;;;;;;;1.84;100.00;101400.98;106916;1245;62412;-71
2023/12/05 09:11:13;;;;;;;17.90;11.30;;;;;;;1.86;100.00;101390.79;106949;1252;60882;-71
2023/12/05 09:13:41;;;;;;;21.60;11.60;;;;;;;1.92;100.00;101388.23;106922;1243;73591;-73
2023/12/05 09:16:10;;;;;;;22.80;12.40;;;;;;;2.01;100.00;101375.63;106975;1245;72570;-70
2023/12/05 09:18:40;;;;;;;17.30;11.40;;;;;;;1.98;100.00;101367.46;106838;1256;70761;-71
2023/12/05 09:21:09;;;;;;;14.80;8.30;;;;;;;1.93;100.00;101357.79;106967;1250;72076;-70
2023/12/05 09:23:39;;;;;;;21.30;10.20;;;;;;;2.14;100.00;101358.61;107009;1253;62734;-70
2023/12/05 09:26:08;;;;;;;21.50;11.80;;;;;;;2.10;100.00;101364.05;106801;1245;60813;-72
2023/12/05 09:28:37;;;;;;;19.30;12.20;;;;;;;2.11;100.00;101346.84;107104;1246;73025;-72
2023/12/05 09:31:06;;;;;;;17.10;9.40;;;;;;;2.16;100.00;101344.98;107144;1243;71903;-71
2023/12/05 09:33:35;;;;;;;22.00;11.10;;;;;;;2.22;100.00;101331.07;107097;1247;69057;-71
2023/12/05 09:36:05;;;;;;;16.50;9.10;;;;;;;2.22;100.00;101328.50;106933;1248;73853;-71
2023/12/05 09:38:34;;;;;;;22.30;12.60;;;;;;;2.36;100.00;101317.94;107154;1245;60366;-72
2023/12/05 09:41:04;;;;;;;20.30;11.80;;;;;;;2.28;100.00;101317.66;107216;1255;59109;-73
2023/12/05 09:43:35;;;;;;;19.00;11.90;;;;;;;2.30;100.00;101318.28;106913;1244;73575;-73
2023/12/05 09:46:09;;;;;;;18.50;11.00;;;;;;;2.28;100.00;101309.74;107158;1254;71892;-72
2023/12/05 09:48:46;;;;;;;;;;;;;;;2.36;100.00;101304.17;106985;1247;59806;-74
2023/12/05 09:51:17;;;;;;;20.00;10.50;;;;;;;2.47;100.00;101298.04;107131;1245;74096;-71
2023/12/05 09:53:48;;;;;;;20.30;12.00;;;;;;;2.45;100.00;101292.77;107121;1243;58694;-72
2023/12/05 09:56:19;;;;;;;21.20;11.60;;;;;;;2.47;100.00;101298.05;107122;1243;60476;-72
2023/12/05 09:58:47;;;;;;;21.80;10.30;;;;;;;2.54;100.00;101293.34;107190;1250;73250;-72
2023/12/05 10:01:19;;;;;;;19.70;10.90;;;;;;;2.54;100.00;101294.21;107298;1247;72441;-74
2023/12/05 10:03:56;;;;;;;24.10;13.60;;;;;;;2.52;100.00;101294.45;107232;1243;71004;-74
2023/12/05 10:06:26;;;;;;;21.80;12.90;;;;;;;2.53;100.00;101287.00;107220;1254;74461;-71
2023/12/05 10:08:57;;;;;;;18.20;11.70;;;;;;;2.55;100.00;101272.68;107068;1247;61458;-71
2023/12/05 10:11:27;;;;;;;19.00;10.20;;;;;;;2.61;100.00;101270.27;107198;1245;60072;-72
2023/12/05 10:13:59;;;;;;;18.40;11.20;;;;;;;2.65;100.00;101264.29;107219;1246;61847;-72
2023/12/05 10:16:31;;;;;;;19.00;11.40;;;;;;;2.60;100.00;101253.80;107188;1246;61555;-72
2023/12/05 10:19:01;;;;;;;18.70;9.30;;;;;;;2.64;100.00;101252.11;107064;1248;70500;-71
2023/12/05 10:21:31;;;;;;;19.40;9.40;;;;;;;2.70;100.00;101253.66;106988;1247;62869;-72
2023/12/05 10:24:00;;;;;;;15.70;9.70;;;;;;;2.72;100.00;101251.20;107140;1249;58939;-73
2023/12/05 10:26:29;;;;;;;24.30;12.20;;;;;;;2.75;100.00;101248.51;107098;1256;61049;-71
2023/12/05 10:28:58;;;;;;;16.70;8.90;;;;;;;2.80;100.00;101253.87;107078;1255;63397;-70
2023/12/05 10:31:27;;;;;;;16.00;10.30;;;;;;;2.85;100.00;101257.14;107171;1245;61016;-71
2023/12/05 10:34:07;;;;;;;20.70;10.50;;;;;;;2.86;100.00;101258.48;107194;1243;70483;-72
2023/12/05 10:36:36;;;;;;;20.70;11.70;;;;;;;2.85;100.00;101254.90;107064;1247;64815;-72
2023/12/05 10:39:05;;;;;;;16.00;10.90;;;;;;;2.86;100.00;101246.95;107170;1248;59984;-72
2023/12/05 10:41:35;;;;;;;18.10;9.80;;;;;;;2.87;100.00;101250.87;107189;1256;61266;-72
2023/12/05 10:44:04;;;;;;;18.10;11.60;;;;;;;3.00;100.00;101240.65;107029;1256;71506;-71
2023/12/05 10:46:36;;;;;;;18.20;10.20;;;;;;;2.93;100.00;101234.34;106958;1247;61695;-71
2023/12/05 10:49:06;;;;;;;17.30;8.70;;;;;;;3.03;100.00;101226.79;107064;1247;60037;-74
2023/12/05 10:51:35;;;;;;;17.00;11.50;;;;;;;3.02;100.00;101221.50;107053;1250;63906;-72
2023/12/05 10:54:05;;;;;;;21.50;10.90;;;;;;;3.02;100.00;101220.65;107014;1243;62111;-72
2023/12/05 10:56:34;;;;;;;18.00;10.40;;;;;;;3.15;100.00;101219.69;107088;1245;58998;-73
2023/12/05 10:59:05;;;;;;;23.70;9.70;;;;;;;3.18;100.00;101218.19;107028;1248;71137;-71
2023/12/05 11:01:34;;;;;;;17.30;10.20;;;;;;;3.14;100.00;101224.21;106944;1250;72176;-72
2023/12/05 11:04:06;;;;;;;18.90;10.60;;;;;;;3.15;100.00;101221.59;107126;1253;70090;-72
2023/12/05 11:06:35;;;;;;;20.60;11.00;;;;;;;3.20;100.00;101213.32;107109;1247;63032;-73
2023/12/05 11:09:04;;;;;;;18.40;10.50;;;;;;;3.21;100.00;101215.50;107116;1248;59065;-73
2023/12/05 11:11:35;;;;;;;17.50;9.90;;;;;;;3.21;100.00;101210.19;107218;1245;57792;-72
2023/12/05 11:14:06;;;;;;;19.10;9.50;;;;;;;3.30;100.00;101210.59;107204;1248;62019;-73